sensor_id;sensor_type;location;lat;lon;timestamp;P1;durP1;ratioP1;P2;durP2;ratioP2
12654;SDS011;6392;44.644;11.448;2023-08-31T00:02:02;1.60;;;0.83;;
12654;SDS011;6392;44.644;11.448;2023-08-31T00:04:29;2.13;;;0.90;;
12654;SDS011;6392;44.644;11.448;2023-08-31T00:06:56;2.57;;;0.70;;
12654;SDS011;6392;44.644;11.448;2023-08-31T00:09:24;1.00;;;0.70;;
12654;SDS011;6392;44.644;11.448;2023-08-31T00:11:51;1.03;;;0.87;;
12654;SDS011;6392;44.644;11.448;2023-08-31T00:14:18;0.93;;;0.80;;
12654;SDS011;6392;44.644;11.448;2023-08-31T00:16:47;0.70;;;0.60;;
12654;SDS011;6392;44.644;11.448;2023-08-31T00:19:15;0.70;;;0.60;;
12654;SDS011;6392;44.644;11.448;2023-08-31T00:21:42;1.07;;;0.87;;
12654;SDS011;6392;44.644;11.448;2023-08-31T00:24:09;1.70;;;0.83;;
12654;SDS011;6392;44.644;11.448;2023-08-31T00:26:37;1.07;;;0.77;;
12654;SDS011;6392;44.644;11.448;2023-08-31T00:29:06;0.93;;;0.77;;
12654;SDS011;6392;44.644;11.448;2023-08-31T00:31:34;1.83;;;0.80;;
12654;SDS011;6392;44.644;11.448;2023-08-31T00:34:01;0.87;;;0.63;;
12654;SDS011;6392;44.644;11.448;2023-08-31T00:36:29;1.20;;;0.80;;
12654;SDS011;6392;44.644;11.448;2023-08-31T00:38:56;2.37;;;0.87;;
12654;SDS011;6392;44.644;11.448;2023-08-31T00:41:23;1.63;;;1.20;;
12654;SDS011;6392;44.644;11.448;2023-08-31T00:43:51;0.97;;;0.80;;
12654;SDS011;6392;44.644;11.448;2023-08-31T00:46:18;1.13;;;0.80;;
12654;SDS011;6392;44.644;11.448;2023-08-31T00:48:45;2.07;;;0.80;;
12654;SDS011;6392;44.644;11.448;2023-08-31T00:51:13;3.63;;;1.73;;
12654;SDS011;6392;44.644;11.448;2023-08-31T00:53:40;0.73;;;0.67;;
12654;SDS011;6392;44.644;11.448;2023-08-31T00:56:08;1.43;;;0.90;;
12654;SDS011;6392;44.644;11.448;2023-08-31T00:58:35;1.00;;;0.90;;
12654;SDS011;6392;44.644;11.448;2023-08-31T01:01:06;3.23;;;0.80;;
12654;SDS011;6392;44.644;11.448;2023-08-31T01:03:42;1.83;;;0.70;;
12654;SDS011;6392;44.644;11.448;2023-08-31T01:06:18;0.90;;;0.60;;
12654;SDS011;6392;44.644;11.448;2023-08-31T01:08:57;1.23;;;0.77;;
12654;SDS011;6392;44.644;11.448;2023-08-31T01:11:34;1.37;;;0.73;;
12654;SDS011;6392;44.644;11.448;2023-08-31T01:14:11;1.17;;;0.60;;
12654;SDS011;6392;44.644;11.448;2023-08-31T01:16:46;0.60;;;0.60;;
12654;SDS011;6392;44.644;11.448;2023-08-31T01:19:17;1.00;;;0.80;;
12654;SDS011;6392;44.644;11.448;2023-08-31T01:21:57;0.70;;;0.70;;
12654;SDS011;6392;44.644;11.448;2023-08-31T01:24:28;1.23;;;1.00;;
12654;SDS011;6392;44.644;11.448;2023-08-31T01:26:56;2.17;;;0.97;;
12654;SDS011;6392;44.644;11.448;2023-08-31T01:29:23;3.07;;;0.70;;
12654;SDS011;6392;44.644;11.448;2023-08-31T01:31:50;1.40;;;0.80;;
12654;SDS011;6392;44.644;11.448;2023-08-31T01:34:18;0.70;;;0.70;;
12654;SDS011;6392;44.644;11.448;2023-08-31T01:36:46;2.40;;;0.80;;
12654;SDS011;6392;44.644;11.448;2023-08-31T01:39:20;1.27;;;0.83;;
12654;SDS011;6392;44.644;11.448;2023-08-31T01:41:55;1.00;;;0.90;;
12654;SDS011;6392;44.644;11.448;2023-08-31T01:44:24;0.83;;;0.83;;
12654;SDS011;6392;44.644;11.448;2023-08-31T01:46:52;1.00;;;0.90;;
12654;SDS011;6392;44.644;11.448;2023-08-31T01:49:20;1.23;;;0.90;;
12654;SDS011;6392;44.644;11.448;2023-08-31T01:51:47;4.87;;;1.17;;
12654;SDS011;6392;44.644;11.448;2023-08-31T01:54:14;4.37;;;0.87;;
12654;SDS011;6392;44.644;11.448;2023-08-31T01:56:42;1.70;;;0.90;;
12654;SDS011;6392;44.644;11.448;2023-08-31T01:59:10;1.57;;;1.07;;
12654;SDS011;6392;44.644;11.448;2023-08-31T02:01:37;1.20;;;0.87;;
12654;SDS011;6392;44.644;11.448;2023-08-31T02:04:04;1.73;;;0.87;;
12654;SDS011;6392;44.644;11.448;2023-08-31T02:06:31;3.53;;;0.70;;
12654;SDS011;6392;44.644;11.448;2023-08-31T02:08:58;1.43;;;0.90;;
12654;SDS011;6392;44.644;11.448;2023-08-31T02:11:25;1.27;;;0.90;;
12654;SDS011;6392;44.644;11.448;2023-08-31T02:13:52;1.97;;;0.80;;
12654;SDS011;6392;44.644;11.448;2023-08-31T02:16:21;2.63;;;1.83;;
12654;SDS011;6392;44.644;11.448;2023-08-31T02:18:48;1.10;;;1.00;;
12654;SDS011;6392;44.644;11.448;2023-08-31T02:21:15;2.93;;;1.10;;
12654;SDS011;6392;44.644;11.448;2023-08-31T02:23:42;0.90;;;0.83;;
12654;SDS011;6392;44.644;11.448;2023-08-31T02:26:08;4.20;;;0.90;;
12654;SDS011;6392;44.644;11.448;2023-08-31T02:28:37;1.00;;;0.90;;
12654;SDS011;6392;44.644;11.448;2023-08-31T02:31:04;1.53;;;0.60;;
12654;SDS011;6392;44.644;11.448;2023-08-31T02:33:32;1.60;;;1.00;;
12654;SDS011;6392;44.644;11.448;2023-08-31T02:35:59;1.03;;;0.70;;
12654;SDS011;6392;44.644;11.448;2023-08-31T02:38:26;2.47;;;0.90;;
12654;SDS011;6392;44.644;11.448;2023-08-31T02:40:53;0.97;;;0.93;;
12654;SDS011;6392;44.644;11.448;2023-08-31T02:43:20;2.73;;;1.10;;
12654;SDS011;6392;44.644;11.448;2023-08-31T02:45:47;2.27;;;1.00;;
12654;SDS011;6392;44.644;11.448;2023-08-31T02:48:14;1.43;;;1.00;;
12654;SDS011;6392;44.644;11.448;2023-08-31T02:50:43;1.50;;;0.90;;
12654;SDS011;6392;44.644;11.448;2023-08-31T02:53:11;1.43;;;1.10;;
12654;SDS011;6392;44.644;11.448;2023-08-31T02:55:38;1.80;;;1.10;;
12654;SDS011;6392;44.644;11.448;2023-08-31T02:58:05;1.13;;;0.93;;
12654;SDS011;6392;44.644;11.448;2023-08-31T03:00:32;1.47;;;1.10;;
12654;SDS011;6392;44.644;11.448;2023-08-31T03:02:59;1.37;;;1.10;;
12654;SDS011;6392;44.644;11.448;2023-08-31T03:05:26;1.70;;;0.97;;
12654;SDS011;6392;44.644;11.448;2023-08-31T03:07:54;1.53;;;1.00;;
12654;SDS011;6392;44.644;11.448;2023-08-31T03:10:22;2.33;;;0.93;;
12654;SDS011;6392;44.644;11.448;2023-08-31T03:12:49;1.63;;;1.20;;
12654;SDS011;6392;44.644;11.448;2023-08-31T03:15:16;2.33;;;1.30;;
12654;SDS011;6392;44.644;11.448;2023-08-31T03:17:43;4.30;;;1.17;;
12654;SDS011;6392;44.644;11.448;2023-08-31T03:20:10;2.90;;;1.33;;
12654;SDS011;6392;44.644;11.448;2023-08-31T03:22:37;1.20;;;1.10;;
12654;SDS011;6392;44.644;11.448;2023-08-31T03:25:06;1.57;;;1.00;;
12654;SDS011;6392;44.644;11.448;2023-08-31T03:27:34;1.50;;;1.03;;
12654;SDS011;6392;44.644;11.448;2023-08-31T03:30:01;1.60;;;1.00;;
12654;SDS011;6392;44.644;11.448;2023-08-31T03:32:29;0.83;;;0.73;;
12654;SDS011;6392;44.644;11.448;2023-08-31T03:34:56;1.20;;;1.10;;
12654;SDS011;6392;44.644;11.448;2023-08-31T03:37:23;1.23;;;1.00;;
12654;SDS011;6392;44.644;11.448;2023-08-31T03:39:50;1.33;;;0.90;;
12654;SDS011;6392;44.644;11.448;2023-08-31T03:42:18;2.40;;;1.10;;
12654;SDS011;6392;44.644;11.448;2023-08-31T03:44:45;1.33;;;1.00;;
12654;SDS011;6392;44.644;11.448;2023-08-31T03:47:12;1.17;;;0.90;;
12654;SDS011;6392;44.644;11.448;2023-08-31T03:49:39;1.23;;;1.10;;
12654;SDS011;6392;44.644;11.448;2023-08-31T03:52:06;2.20;;;0.90;;
12654;SDS011;6392;44.644;11.448;2023-08-31T03:54:33;1.47;;;0.80;;
12654;SDS011;6392;44.644;11.448;2023-08-31T03:57:00;1.20;;;1.00;;
12654;SDS011;6392;44.644;11.448;2023-08-31T03:59:28;1.57;;;0.87;;
12654;SDS011;6392;44.644;11.448;2023-08-31T04:01:55;3.40;;;0.93;;
12654;SDS011;6392;44.644;11.448;2023-08-31T04:04:22;0.80;;;0.80;;
12654;SDS011;6392;44.644;11.448;2023-08-31T04:06:50;1.63;;;0.80;;
12654;SDS011;6392;44.644;11.448;2023-08-31T04:09:17;1.70;;;0.93;;
12654;SDS011;6392;44.644;11.448;2023-08-31T04:11:45;1.60;;;0.80;;
12654;SDS011;6392;44.644;11.448;2023-08-31T04:14:12;2.17;;;1.60;;
12654;SDS011;6392;44.644;11.448;2023-08-31T04:16:40;1.10;;;0.97;;
12654;SDS011;6392;44.644;11.448;2023-08-31T04:19:07;1.80;;;0.80;;
12654;SDS011;6392;44.644;11.448;2023-08-31T04:21:35;1.17;;;0.90;;
12654;SDS011;6392;44.644;11.448;2023-08-31T04:24:03;1.80;;;0.90;;
12654;SDS011;6392;44.644;11.448;2023-08-31T04:26:31;2.77;;;1.10;;
12654;SDS011;6392;44.644;11.448;2023-08-31T04:28:58;1.67;;;0.90;;
12654;SDS011;6392;44.644;11.448;2023-08-31T04:31:25;2.60;;;1.13;;
12654;SDS011;6392;44.644;11.448;2023-08-31T04:33:53;1.20;;;0.80;;
12654;SDS011;6392;44.644;11.448;2023-08-31T04:36:20;1.40;;;1.00;;
12654;SDS011;6392;44.644;11.448;2023-08-31T04:38:48;1.87;;;0.83;;
12654;SDS011;6392;44.644;11.448;2023-08-31T04:41:15;1.57;;;1.00;;
12654;SDS011;6392;44.644;11.448;2023-08-31T04:43:42;4.20;;;1.00;;
12654;SDS011;6392;44.644;11.448;2023-08-31T04:46:09;2.00;;;1.20;;
12654;SDS011;6392;44.644;11.448;2023-08-31T04:48:36;1.90;;;1.00;;
12654;SDS011;6392;44.644;11.448;2023-08-31T04:51:06;3.30;;;0.93;;
12654;SDS011;6392;44.644;11.448;2023-08-31T04:53:33;2.13;;;1.00;;
12654;SDS011;6392;44.644;11.448;2023-08-31T04:56:00;3.23;;;1.00;;
12654;SDS011;6392;44.644;11.448;2023-08-31T04:58:27;3.33;;;0.90;;
12654;SDS011;6392;44.644;11.448;2023-08-31T05:00:54;1.53;;;1.00;;
12654;SDS011;6392;44.644;11.448;2023-08-31T05:03:21;1.83;;;0.80;;
12654;SDS011;6392;44.644;11.448;2023-08-31T05:05:48;1.77;;;0.90;;
12654;SDS011;6392;44.644;11.448;2023-08-31T05:08:16;0.90;;;0.90;;
12654;SDS011;6392;44.644;11.448;2023-08-31T05:10:44;1.93;;;1.20;;
12654;SDS011;6392;44.644;11.448;2023-08-31T05:13:11;1.20;;;1.00;;
12654;SDS011;6392;44.644;11.448;2023-08-31T05:15:38;1.63;;;1.10;;
12654;SDS011;6392;44.644;11.448;2023-08-31T05:18:05;2.20;;;1.20;;
12654;SDS011;6392;44.644;11.448;2023-08-31T05:20:33;4.30;;;1.40;;
12654;SDS011;6392;44.644;11.448;2023-08-31T05:23:00;2.03;;;1.20;;
12654;SDS011;6392;44.644;11.448;2023-08-31T05:25:29;3.60;;;1.13;;
12654;SDS011;6392;44.644;11.448;2023-08-31T05:27:56;1.50;;;0.90;;
12654;SDS011;6392;44.644;11.448;2023-08-31T05:30:23;1.33;;;1.00;;
12654;SDS011;6392;44.644;11.448;2023-08-31T05:32:50;6.40;;;1.20;;
12654;SDS011;6392;44.644;11.448;2023-08-31T05:35:17;1.30;;;0.90;;
12654;SDS011;6392;44.644;11.448;2023-08-31T05:37:44;2.73;;;1.23;;
12654;SDS011;6392;44.644;11.448;2023-08-31T05:40:12;1.70;;;1.10;;
12654;SDS011;6392;44.644;11.448;2023-08-31T05:42:40;3.73;;;1.10;;
12654;SDS011;6392;44.644;11.448;2023-08-31T05:45:08;2.40;;;1.10;;
12654;SDS011;6392;44.644;11.448;2023-08-31T05:47:35;1.60;;;1.10;;
12654;SDS011;6392;44.644;11.448;2023-08-31T05:50:03;2.53;;;1.10;;
12654;SDS011;6392;44.644;11.448;2023-08-31T05:52:31;7.13;;;1.60;;
12654;SDS011;6392;44.644;11.448;2023-08-31T05:54:58;1.37;;;1.00;;
12654;SDS011;6392;44.644;11.448;2023-08-31T05:57:25;1.47;;;1.00;;
12654;SDS011;6392;44.644;11.448;2023-08-31T05:59:55;1.40;;;1.30;;
12654;SDS011;6392;44.644;11.448;2023-08-31T06:02:22;1.30;;;1.00;;
12654;SDS011;6392;44.644;11.448;2023-08-31T06:04:49;1.00;;;0.90;;
12654;SDS011;6392;44.644;11.448;2023-08-31T06:07:16;5.17;;;1.13;;
12654;SDS011;6392;44.644;11.448;2023-08-31T06:09:43;2.03;;;1.00;;
12654;SDS011;6392;44.644;11.448;2023-08-31T06:12:10;1.87;;;1.10;;
12654;SDS011;6392;44.644;11.448;2023-08-31T06:14:37;1.23;;;0.93;;
12654;SDS011;6392;44.644;11.448;2023-08-31T06:17:05;2.50;;;1.13;;
12654;SDS011;6392;44.644;11.448;2023-08-31T06:19:33;1.40;;;1.10;;
12654;SDS011;6392;44.644;11.448;2023-08-31T06:22:01;1.20;;;0.90;;
12654;SDS011;6392;44.644;11.448;2023-08-31T06:24:28;1.07;;;0.97;;
12654;SDS011;6392;44.644;11.448;2023-08-31T06:26:55;2.87;;;1.20;;
12654;SDS011;6392;44.644;11.448;2023-08-31T06:29:22;1.37;;;1.10;;
12654;SDS011;6392;44.644;11.448;2023-08-31T06:31:49;1.83;;;1.07;;
12654;SDS011;6392;44.644;11.448;2023-08-31T06:34:18;2.93;;;1.23;;
12654;SDS011;6392;44.644;11.448;2023-08-31T06:36:45;2.83;;;1.47;;
12654;SDS011;6392;44.644;11.448;2023-08-31T06:39:12;3.00;;;1.40;;
12654;SDS011;6392;44.644;11.448;2023-08-31T06:41:40;2.07;;;1.40;;
12654;SDS011;6392;44.644;11.448;2023-08-31T06:44:07;2.37;;;1.43;;
12654;SDS011;6392;44.644;11.448;2023-08-31T06:46:34;2.13;;;1.10;;
12654;SDS011;6392;44.644;11.448;2023-08-31T06:49:03;4.30;;;1.40;;
12654;SDS011;6392;44.644;11.448;2023-08-31T06:51:32;3.63;;;1.67;;
12654;SDS011;6392;44.644;11.448;2023-08-31T06:53:59;2.77;;;1.80;;
12654;SDS011;6392;44.644;11.448;2023-08-31T06:56:31;4.20;;;1.40;;
12654;SDS011;6392;44.644;11.448;2023-08-31T06:58:59;3.40;;;1.60;;
12654;SDS011;6392;44.644;11.448;2023-08-31T07:01:26;3.10;;;1.00;;
12654;SDS011;6392;44.644;11.448;2023-08-31T07:03:53;1.97;;;1.20;;
12654;SDS011;6392;44.644;11.448;2023-08-31T07:06:20;2.50;;;1.33;;
12654;SDS011;6392;44.644;11.448;2023-08-31T07:08:48;1.97;;;1.20;;
12654;SDS011;6392;44.644;11.448;2023-08-31T07:11:16;3.70;;;1.57;;
12654;SDS011;6392;44.644;11.448;2023-08-31T07:13:44;3.97;;;1.90;;
12654;SDS011;6392;44.644;11.448;2023-08-31T07:16:11;2.87;;;2.00;;
12654;SDS011;6392;44.644;11.448;2023-08-31T07:18:38;3.07;;;2.50;;
12654;SDS011;6392;44.644;11.448;2023-08-31T07:21:05;4.57;;;1.80;;
12654;SDS011;6392;44.644;11.448;2023-08-31T07:23:33;5.07;;;2.40;;
12654;SDS011;6392;44.644;11.448;2023-08-31T07:26:01;3.40;;;2.13;;
12654;SDS011;6392;44.644;11.448;2023-08-31T07:28:30;2.77;;;2.37;;
12654;SDS011;6392;44.644;11.448;2023-08-31T07:31:00;3.53;;;2.70;;
12654;SDS011;6392;44.644;11.448;2023-08-31T07:33:29;4.83;;;2.87;;
12654;SDS011;6392;44.644;11.448;2023-08-31T07:35:56;3.40;;;3.10;;
12654;SDS011;6392;44.644;11.448;2023-08-31T07:38:23;7.57;;;3.43;;
12654;SDS011;6392;44.644;11.448;2023-08-31T07:40:51;3.27;;;2.97;;
12654;SDS011;6392;44.644;11.448;2023-08-31T07:43:19;6.17;;;3.63;;
12654;SDS011;6392;44.644;11.448;2023-08-31T07:45:46;4.60;;;3.00;;
12654;SDS011;6392;44.644;11.448;2023-08-31T07:48:13;4.17;;;3.00;;
12654;SDS011;6392;44.644;11.448;2023-08-31T07:50:41;5.53;;;3.80;;
12654;SDS011;6392;44.644;11.448;2023-08-31T07:53:08;5.57;;;3.23;;
12654;SDS011;6392;44.644;11.448;2023-08-31T07:55:35;4.60;;;3.30;;
12654;SDS011;6392;44.644;11.448;2023-08-31T07:58:02;6.37;;;3.33;;
12654;SDS011;6392;44.644;11.448;2023-08-31T08:00:30;5.73;;;3.37;;
12654;SDS011;6392;44.644;11.448;2023-08-31T08:02:57;5.47;;;3.10;;
12654;SDS011;6392;44.644;11.448;2023-08-31T08:05:24;6.03;;;3.80;;
12654;SDS011;6392;44.644;11.448;2023-08-31T08:07:51;5.50;;;4.17;;
12654;SDS011;6392;44.644;11.448;2023-08-31T08:10:19;6.73;;;4.13;;
12654;SDS011;6392;44.644;11.448;2023-08-31T08:12:46;4.33;;;3.90;;
12654;SDS011;6392;44.644;11.448;2023-08-31T08:15:14;4.97;;;4.03;;
12654;SDS011;6392;44.644;11.448;2023-08-31T08:17:42;6.37;;;4.13;;
12654;SDS011;6392;44.644;11.448;2023-08-31T08:20:10;4.23;;;3.83;;
12654;SDS011;6392;44.644;11.448;2023-08-31T08:22:37;5.10;;;4.37;;
12654;SDS011;6392;44.644;11.448;2023-08-31T08:25:05;4.67;;;4.03;;
12654;SDS011;6392;44.644;11.448;2023-08-31T08:27:32;5.50;;;3.77;;
12654;SDS011;6392;44.644;11.448;2023-08-31T08:30:00;5.47;;;4.00;;
12654;SDS011;6392;44.644;11.448;2023-08-31T08:32:27;6.50;;;4.40;;
12654;SDS011;6392;44.644;11.448;2023-08-31T08:34:55;7.53;;;4.00;;
12654;SDS011;6392;44.644;11.448;2023-08-31T08:37:22;6.50;;;4.00;;
12654;SDS011;6392;44.644;11.448;2023-08-31T08:39:50;5.23;;;3.93;;
12654;SDS011;6392;44.644;11.448;2023-08-31T08:42:17;6.10;;;3.77;;
12654;SDS011;6392;44.644;11.448;2023-08-31T08:44:45;6.00;;;3.80;;
12654;SDS011;6392;44.644;11.448;2023-08-31T08:47:13;4.37;;;3.50;;
12654;SDS011;6392;44.644;11.448;2023-08-31T08:49:41;5.27;;;4.00;;
12654;SDS011;6392;44.644;11.448;2023-08-31T08:52:11;6.57;;;3.80;;
12654;SDS011;6392;44.644;11.448;2023-08-31T08:54:40;4.73;;;3.20;;
12654;SDS011;6392;44.644;11.448;2023-08-31T08:57:07;4.90;;;3.17;;
12654;SDS011;6392;44.644;11.448;2023-08-31T08:59:34;8.03;;;2.80;;
12654;SDS011;6392;44.644;11.448;2023-08-31T09:02:02;4.97;;;2.87;;
12654;SDS011;6392;44.644;11.448;2023-08-31T09:04:31;5.37;;;3.03;;
12654;SDS011;6392;44.644;11.448;2023-08-31T09:06:58;7.87;;;3.73;;
12654;SDS011;6392;44.644;11.448;2023-08-31T09:09:26;3.57;;;2.70;;
12654;SDS011;6392;44.644;11.448;2023-08-31T09:11:53;4.60;;;2.80;;
12654;SDS011;6392;44.644;11.448;2023-08-31T09:14:21;3.40;;;3.00;;
12654;SDS011;6392;44.644;11.448;2023-08-31T09:16:49;3.80;;;2.80;;
12654;SDS011;6392;44.644;11.448;2023-08-31T09:19:17;4.13;;;2.53;;
12654;SDS011;6392;44.644;11.448;2023-08-31T09:21:46;3.00;;;2.70;;
12654;SDS011;6392;44.644;11.448;2023-08-31T09:24:14;4.00;;;3.30;;
12654;SDS011;6392;44.644;11.448;2023-08-31T09:26:44;6.93;;;3.00;;
12654;SDS011;6392;44.644;11.448;2023-08-31T09:29:12;5.00;;;2.90;;
12654;SDS011;6392;44.644;11.448;2023-08-31T09:31:41;3.03;;;2.70;;
12654;SDS011;6392;44.644;11.448;2023-08-31T09:34:10;3.77;;;3.37;;
12654;SDS011;6392;44.644;11.448;2023-08-31T09:36:37;4.17;;;2.60;;
12654;SDS011;6392;44.644;11.448;2023-08-31T09:39:05;4.33;;;3.07;;
12654;SDS011;6392;44.644;11.448;2023-08-31T09:41:33;6.90;;;3.67;;
12654;SDS011;6392;44.644;11.448;2023-08-31T09:44:15;3.80;;;3.40;;
12654;SDS011;6392;44.644;11.448;2023-08-31T09:46:43;5.00;;;3.40;;
12654;SDS011;6392;44.644;11.448;2023-08-31T09:49:11;6.60;;;4.10;;
12654;SDS011;6392;44.644;11.448;2023-08-31T09:51:41;4.17;;;3.40;;
12654;SDS011;6392;44.644;11.448;2023-08-31T09:54:11;5.13;;;2.73;;
12654;SDS011;6392;44.644;11.448;2023-08-31T09:56:40;3.97;;;3.43;;
12654;SDS011;6392;44.644;11.448;2023-08-31T09:59:09;4.73;;;3.10;;
12654;SDS011;6392;44.644;11.448;2023-08-31T10:01:39;3.33;;;3.03;;
12654;SDS011;6392;44.644;11.448;2023-08-31T10:04:06;7.37;;;3.30;;
12654;SDS011;6392;44.644;11.448;2023-08-31T10:06:34;5.87;;;3.50;;
12654;SDS011;6392;44.644;11.448;2023-08-31T10:09:03;3.97;;;3.23;;
12654;SDS011;6392;44.644;11.448;2023-08-31T10:11:30;6.37;;;3.60;;
12654;SDS011;6392;44.644;11.448;2023-08-31T10:13:59;3.80;;;3.40;;
12654;SDS011;6392;44.644;11.448;2023-08-31T10:16:26;4.77;;;3.00;;
12654;SDS011;6392;44.644;11.448;2023-08-31T10:18:55;4.53;;;2.97;;
12654;SDS011;6392;44.644;11.448;2023-08-31T10:21:23;5.73;;;4.53;;
12654;SDS011;6392;44.644;11.448;2023-08-31T10:23:50;4.97;;;3.73;;
12654;SDS011;6392;44.644;11.448;2023-08-31T10:26:24;5.13;;;2.80;;
12654;SDS011;6392;44.644;11.448;2023-08-31T10:28:52;4.43;;;2.67;;
12654;SDS011;6392;44.644;11.448;2023-08-31T10:31:19;5.53;;;2.37;;
12654;SDS011;6392;44.644;11.448;2023-08-31T10:33:54;4.33;;;2.00;;
12654;SDS011;6392;44.644;11.448;2023-08-31T10:36:34;4.63;;;2.77;;
12654;SDS011;6392;44.644;11.448;2023-08-31T10:39:06;4.33;;;2.77;;
12654;SDS011;6392;44.644;11.448;2023-08-31T10:41:38;3.20;;;2.80;;
12654;SDS011;6392;44.644;11.448;2023-08-31T10:44:17;4.93;;;2.90;;
12654;SDS011;6392;44.644;11.448;2023-08-31T10:46:45;5.40;;;3.10;;
12654;SDS011;6392;44.644;11.448;2023-08-31T10:49:15;3.53;;;1.27;;
12654;SDS011;6392;44.644;11.448;2023-08-31T10:51:43;4.73;;;2.57;;
12654;SDS011;6392;44.644;11.448;2023-08-31T10:54:12;4.87;;;3.07;;
12654;SDS011;6392;44.644;11.448;2023-08-31T10:56:53;4.30;;;2.60;;
12654;SDS011;6392;44.644;11.448;2023-08-31T10:59:21;3.80;;;2.00;;
12654;SDS011;6392;44.644;11.448;2023-08-31T11:01:52;2.57;;;1.57;;
12654;SDS011;6392;44.644;11.448;2023-08-31T11:04:23;2.53;;;2.03;;
12654;SDS011;6392;44.644;11.448;2023-08-31T11:09:43;4.70;;;2.50;;
12654;SDS011;6392;44.644;11.448;2023-08-31T11:12:11;3.50;;;2.20;;
12654;SDS011;6392;44.644;11.448;2023-08-31T11:14:39;2.73;;;2.30;;
12654;SDS011;6392;44.644;11.448;2023-08-31T11:17:07;4.03;;;1.97;;
12654;SDS011;6392;44.644;11.448;2023-08-31T11:19:37;3.33;;;1.63;;
12654;SDS011;6392;44.644;11.448;2023-08-31T11:22:05;2.57;;;1.97;;
12654;SDS011;6392;44.644;11.448;2023-08-31T11:24:35;3.03;;;1.80;;
12654;SDS011;6392;44.644;11.448;2023-08-31T11:27:02;2.20;;;1.40;;
12654;SDS011;6392;44.644;11.448;2023-08-31T11:29:36;2.80;;;1.50;;
12654;SDS011;6392;44.644;11.448;2023-08-31T11:32:04;2.33;;;1.77;;
12654;SDS011;6392;44.644;11.448;2023-08-31T11:34:31;3.80;;;1.63;;
12654;SDS011;6392;44.644;11.448;2023-08-31T11:37:00;2.47;;;1.20;;
12654;SDS011;6392;44.644;11.448;2023-08-31T11:39:28;1.83;;;1.17;;
12654;SDS011;6392;44.644;11.448;2023-08-31T11:41:55;2.63;;;1.37;;
12654;SDS011;6392;44.644;11.448;2023-08-31T11:44:23;1.20;;;1.10;;
12654;SDS011;6392;44.644;11.448;2023-08-31T11:46:51;2.43;;;1.27;;
12654;SDS011;6392;44.644;11.448;2023-08-31T11:49:18;2.10;;;1.30;;
12654;SDS011;6392;44.644;11.448;2023-08-31T11:51:47;2.87;;;1.17;;
12654;SDS011;6392;44.644;11.448;2023-08-31T11:54:17;1.73;;;1.00;;
12654;SDS011;6392;44.644;11.448;2023-08-31T11:56:45;2.80;;;1.43;;
12654;SDS011;6392;44.644;11.448;2023-08-31T11:59:15;1.40;;;1.10;;
12654;SDS011;6392;44.644;11.448;2023-08-31T12:01:45;3.00;;;1.30;;
12654;SDS011;6392;44.644;11.448;2023-08-31T12:04:14;3.27;;;1.33;;
12654;SDS011;6392;44.644;11.448;2023-08-31T12:06:45;3.13;;;1.30;;
12654;SDS011;6392;44.644;11.448;2023-08-31T12:09:13;2.63;;;0.97;;
12654;SDS011;6392;44.644;11.448;2023-08-31T12:11:42;1.30;;;1.07;;
12654;SDS011;6392;44.644;11.448;2023-08-31T12:14:19;3.20;;;1.47;;
12654;SDS011;6392;44.644;11.448;2023-08-31T12:16:47;2.27;;;0.97;;
12654;SDS011;6392;44.644;11.448;2023-08-31T12:19:14;2.30;;;1.17;;
12654;SDS011;6392;44.644;11.448;2023-08-31T12:21:42;1.17;;;1.00;;
12654;SDS011;6392;44.644;11.448;2023-08-31T12:24:10;1.90;;;1.10;;
12654;SDS011;6392;44.644;11.448;2023-08-31T12:26:37;1.30;;;1.10;;
12654;SDS011;6392;44.644;11.448;2023-08-31T12:29:06;2.97;;;1.30;;
12654;SDS011;6392;44.644;11.448;2023-08-31T12:31:33;1.80;;;1.10;;
12654;SDS011;6392;44.644;11.448;2023-08-31T12:34:00;2.13;;;1.40;;
12654;SDS011;6392;44.644;11.448;2023-08-31T12:36:31;2.87;;;1.50;;
12654;SDS011;6392;44.644;11.448;2023-08-31T12:38:58;1.47;;;1.37;;
12654;SDS011;6392;44.644;11.448;2023-08-31T12:41:26;2.20;;;1.20;;
12654;SDS011;6392;44.644;11.448;2023-08-31T12:43:54;1.80;;;1.27;;
12654;SDS011;6392;44.644;11.448;2023-08-31T12:46:22;2.43;;;1.20;;
12654;SDS011;6392;44.644;11.448;2023-08-31T12:48:49;1.43;;;1.07;;
12654;SDS011;6392;44.644;11.448;2023-08-31T12:51:17;3.00;;;1.10;;
12654;SDS011;6392;44.644;11.448;2023-08-31T12:53:44;1.63;;;1.10;;
12654;SDS011;6392;44.644;11.448;2023-08-31T12:56:11;2.47;;;1.40;;
12654;SDS011;6392;44.644;11.448;2023-08-31T12:58:38;2.50;;;1.20;;
12654;SDS011;6392;44.644;11.448;2023-08-31T13:01:05;1.80;;;1.17;;
12654;SDS011;6392;44.644;11.448;2023-08-31T13:03:34;2.80;;;1.40;;
12654;SDS011;6392;44.644;11.448;2023-08-31T13:06:01;1.53;;;1.00;;
12654;SDS011;6392;44.644;11.448;2023-08-31T13:08:28;5.03;;;1.20;;
12654;SDS011;6392;44.644;11.448;2023-08-31T13:10:55;2.10;;;1.03;;
12654;SDS011;6392;44.644;11.448;2023-08-31T13:13:23;3.47;;;1.27;;
12654;SDS011;6392;44.644;11.448;2023-08-31T13:15:50;1.57;;;1.07;;
12654;SDS011;6392;44.644;11.448;2023-08-31T13:18:17;5.93;;;1.20;;
12654;SDS011;6392;44.644;11.448;2023-08-31T13:20:51;1.50;;;1.00;;
12654;SDS011;6392;44.644;11.448;2023-08-31T13:23:19;3.10;;;1.70;;
12654;SDS011;6392;44.644;11.448;2023-08-31T13:25:46;2.03;;;1.10;;
12654;SDS011;6392;44.644;11.448;2023-08-31T13:28:14;2.80;;;1.13;;
12654;SDS011;6392;44.644;11.448;2023-08-31T13:30:41;1.70;;;1.10;;
12654;SDS011;6392;44.644;11.448;2023-08-31T13:33:08;1.30;;;0.90;;
12654;SDS011;6392;44.644;11.448;2023-08-31T13:35:35;1.70;;;1.00;;
12654;SDS011;6392;44.644;11.448;2023-08-31T13:38:04;1.10;;;0.90;;
12654;SDS011;6392;44.644;11.448;2023-08-31T13:40:33;1.73;;;1.10;;
12654;SDS011;6392;44.644;11.448;2023-08-31T13:43:01;2.37;;;1.10;;
12654;SDS011;6392;44.644;11.448;2023-08-31T13:45:29;2.27;;;1.00;;
12654;SDS011;6392;44.644;11.448;2023-08-31T13:47:56;2.13;;;0.97;;
12654;SDS011;6392;44.644;11.448;2023-08-31T13:50:25;1.90;;;1.00;;
12654;SDS011;6392;44.644;11.448;2023-08-31T13:52:52;0.93;;;0.80;;
12654;SDS011;6392;44.644;11.448;2023-08-31T13:55:21;1.17;;;1.03;;
12654;SDS011;6392;44.644;11.448;2023-08-31T13:57:49;1.10;;;1.00;;
12654;SDS011;6392;44.644;11.448;2023-08-31T14:00:16;2.27;;;1.10;;
12654;SDS011;6392;44.644;11.448;2023-08-31T14:02:43;2.87;;;1.00;;
12654;SDS011;6392;44.644;11.448;2023-08-31T14:05:10;3.13;;;1.20;;
12654;SDS011;6392;44.644;11.448;2023-08-31T14:07:39;1.80;;;1.17;;
12654;SDS011;6392;44.644;11.448;2023-08-31T14:10:07;2.93;;;1.10;;
12654;SDS011;6392;44.644;11.448;2023-08-31T14:12:36;4.43;;;1.10;;
12654;SDS011;6392;44.644;11.448;2023-08-31T14:15:04;1.60;;;1.17;;
12654;SDS011;6392;44.644;11.448;2023-08-31T14:17:32;1.13;;;1.00;;
12654;SDS011;6392;44.644;11.448;2023-08-31T14:19:59;1.57;;;1.10;;
12654;SDS011;6392;44.644;11.448;2023-08-31T14:22:33;1.50;;;0.90;;
12654;SDS011;6392;44.644;11.448;2023-08-31T14:25:01;1.87;;;1.00;;
12654;SDS011;6392;44.644;11.448;2023-08-31T14:27:28;1.67;;;1.20;;
12654;SDS011;6392;44.644;11.448;2023-08-31T14:29:57;5.23;;;1.30;;
12654;SDS011;6392;44.644;11.448;2023-08-31T14:32:24;2.77;;;1.07;;
12654;SDS011;6392;44.644;11.448;2023-08-31T14:34:53;2.13;;;1.07;;
12654;SDS011;6392;44.644;11.448;2023-08-31T14:37:20;2.43;;;1.00;;
12654;SDS011;6392;44.644;11.448;2023-08-31T14:39:47;1.00;;;0.90;;
12654;SDS011;6392;44.644;11.448;2023-08-31T14:42:14;2.43;;;1.10;;
12654;SDS011;6392;44.644;11.448;2023-08-31T14:44:42;2.53;;;1.13;;
12654;SDS011;6392;44.644;11.448;2023-08-31T14:47:11;2.60;;;1.10;;
12654;SDS011;6392;44.644;11.448;2023-08-31T14:49:39;2.43;;;1.00;;
12654;SDS011;6392;44.644;11.448;2023-08-31T14:52:06;2.10;;;1.23;;
12654;SDS011;6392;44.644;11.448;2023-08-31T14:54:34;2.00;;;1.00;;
12654;SDS011;6392;44.644;11.448;2023-08-31T14:57:01;2.90;;;1.00;;